KACY/ACY METAR and TAF weather

Enter ICAO airport designator
Station Type Date Time Source
KACY METAR 2021/03/05 11:54 UTC NOAA

KACY 051154Z 31017G26KT 10SM CLR M04/M14 A2998 RMK AO2 PK WND 31026/1144 SLP152 T10391139 11006 21039 53017 $


Station Type Date Time Source
KACY Decoded METAR 2021/03/05 11:54 UTC NOAA

ATLANTIC CITY INTERNATIONAL, NJ, United States (KACY) 39-28N 74-35W 35M
Mar 05, 2021 - 06:54 AM EST / 2021.03.05 1154 UTC
Wind: from the NW (310 degrees) at 20 MPH (17 KT) gusting to 30 MPH (26 KT):0
Visibility: 10 mile(s):0
Sky conditions: clear
Temperature: 25.0 F (-3.9 C)
Windchill: 10 F (-12 C):1
Dew Point: 7.0 F (-13.9 C)
Relative Humidity: 45%
Pressure (altimeter): 29.98 in. Hg (1015 hPa)
Pressure tendency: 0.05 inches (1.7 hPa) higher than three hours ago
ob: KACY 051154Z 31017G26KT 10SM CLR M04/M14 A2998 RMK AO2 PK WND 31026/1144 SLP152 T10391139 11006 21039 53017
cycle: 12

Station Type Date Time Source
KACY TAF 2021/03/05 12:26 UTC NOAA

TAF KACY 051120Z 0512/0612 31016G26KT P6SM SKC
FM052300 29009KT P6SM SKC

Example: see airport list